Time;durP1;ratioP1;P1;durP2;ratioP2;P2;SDS_P1;SDS_P2;PMS_P1;PMS_P2;Temp;Humidity;BMP_temperature;BMP_pressure;BME280_temperature;BME280_humidity;BME280_pressure;Samples;Min_cycle;Max_cycle;Signal;HPM_P1;HPM_P2
2023/09/10 00:01:02;;;;;;;11.95;9.38;;;26.00;99.90;;;;;;4997520;28;20042;-71
2023/09/10 00:03:28;;;;;;;14.48;10.40;;;26.00;99.90;;;;;;4997526;28;20018;-73
2023/09/10 00:05:54;;;;;;;15.85;9.95;;;26.00;99.90;;;;;;4997276;28;20049;-73
2023/09/10 00:08:20;;;;;;;12.27;9.60;;;26.00;99.90;;;;;;4997359;28;20022;-71
2023/09/10 00:10:46;;;;;;;13.70;10.20;;;26.00;99.90;;;;;;4996949;28;20031;-72
2023/09/10 00:13:11;;;;;;;12.30;9.38;;;26.00;99.90;;;;;;4997433;28;20480;-70
2023/09/10 00:15:37;;;;;;;14.85;10.40;;;25.90;99.90;;;;;;4997279;28;20097;-71
2023/09/10 00:18:03;;;;;;;13.63;9.88;;;25.90;99.90;;;;;;4996971;28;20447;-73
2023/09/10 00:20:29;;;;;;;14.02;10.30;;;25.90;99.90;;;;;;4996771;28;20041;-71
2023/09/10 00:22:57;;;;;;;12.85;9.77;;;25.90;99.90;;;;;;4996857;28;20031;-73
2023/09/10 00:25:23;;;;;;;11.10;9.90;;;25.90;99.90;;;;;;4997027;28;20084;-71
2023/09/10 00:27:49;;;;;;;10.05;9.07;;;25.80;99.90;;;;;;4997010;28;20480;-73
2023/09/10 00:30:14;;;;;;;11.27;10.18;;;25.80;99.90;;;;;;4996826;28;20022;-73
2023/09/10 00:32:40;;;;;;;16.20;10.63;;;25.80;99.90;;;;;;4996900;28;20384;-72
2023/09/10 00:35:08;;;;;;;11.82;10.45;;;25.80;99.90;;;;;;4996833;28;20073;-72
2023/09/10 00:37:33;;;;;;;10.10;9.20;;;25.80;99.90;;;;;;4996763;28;20531;-70
2023/09/10 00:39:59;;;;;;;11.55;10.35;;;25.80;99.90;;;;;;4996515;28;20101;-73
2023/09/10 00:42:24;;;;;;;11.88;10.15;;;25.80;99.90;;;;;;4996610;28;20077;-72
2023/09/10 00:44:50;;;;;;;11.02;9.88;;;25.70;99.90;;;;;;4996443;28;20023;-73
2023/09/10 00:47:16;;;;;;;13.70;10.32;;;25.70;99.90;;;;;;4996616;28;20058;-73
2023/09/10 00:49:43;;;;;;;11.77;10.15;;;25.70;99.90;;;;;;4996542;28;20440;-72
2023/09/10 00:52:10;;;;;;;11.18;9.90;;;25.70;99.90;;;;;;4996481;28;20117;-73
2023/09/10 00:54:38;;;;;;;12.23;9.70;;;25.60;99.90;;;;;;4994810;28;20581;-72
2023/09/10 00:57:05;;;;;;;11.90;9.98;;;25.70;99.90;;;;;;4996418;28;20117;-71
2023/09/10 00:59:31;;;;;;;12.80;10.45;;;25.60;99.90;;;;;;4994962;28;20018;-73
2023/09/10 01:02:00;;;;;;;13.23;10.43;;;25.60;99.90;;;;;;4995101;28;20399;-73
2023/09/10 01:04:26;;;;;;;14.45;10.60;;;25.60;99.90;;;;;;4994674;28;20022;-71
2023/09/10 01:06:52;;;;;;;11.23;10.23;;;25.60;99.90;;;;;;4996141;28;20433;-72
2023/09/10 01:09:18;;;;;;;14.40;11.18;;;25.60;99.90;;;;;;4995734;28;20487;-72
2023/09/10 01:11:46;;;;;;;12.02;10.63;;;25.60;99.90;;;;;;4995998;28;20030;-71
2023/09/10 01:14:18;;;;;;;11.98;10.77;;;25.50;99.90;;;;;;4995538;28;20430;-72
2023/09/10 01:16:55;;;;;;;13.07;10.25;;;25.50;99.90;;;;;;4993690;28;20049;-73
2023/09/10 01:19:23;;;;;;;12.75;11.07;;;25.50;99.90;;;;;;4995570;28;20023;-73
2023/09/10 01:21:56;;;;;;;15.77;10.70;;;25.50;99.90;;;;;;4995920;28;20047;-72
2023/09/10 01:24:41;;;;;;;12.25;11.05;;;25.50;99.90;;;;;;4995531;28;20035;-72
2023/09/10 01:27:07;;;;;;;12.63;10.82;;;25.50;99.90;;;;;;4995965;28;20121;-72
2023/09/10 01:29:33;;;;;;;14.30;12.70;;;25.40;99.90;;;;;;4995710;28;20456;-70
2023/09/10 01:32:01;;;;;;;14.85;12.80;;;25.40;99.90;;;;;;4995784;28;20030;-71
2023/09/10 01:34:33;;;;;;;14.00;12.48;;;25.40;99.90;;;;;;4994311;28;20033;-72
2023/09/10 01:37:11;;;;;;;16.73;13.60;;;25.40;99.90;;;;;;4993493;28;20026;-71
2023/09/10 01:39:41;;;;;;;19.58;14.45;;;25.40;99.90;;;;;;4990285;28;20125;-71
2023/09/10 01:42:08;;;;;;;15.60;13.90;;;25.40;99.90;;;;;;4996595;28;20030;-72
2023/09/10 01:44:35;;;;;;;15.45;13.20;;;25.30;99.90;;;;;;4995164;28;20022;-72
2023/09/10 01:47:02;;;;;;;14.52;13.02;;;25.30;99.90;;;;;;4989799;28;20031;-72
2023/09/10 01:49:28;;;;;;;15.30;13.57;;;25.30;99.90;;;;;;4975941;28;20027;-71
2023/09/10 01:51:53;;;;;;;16.27;12.93;;;25.30;99.90;;;;;;4976012;28;20097;-71
2023/09/10 01:54:19;;;;;;;17.50;12.20;;;25.30;99.90;;;;;;4975591;28;20483;-71
2023/09/10 01:56:45;;;;;;;14.00;11.95;;;25.20;99.90;;;;;;4975735;28;20058;-72
2023/09/10 01:59:10;;;;;;;15.05;12.88;;;25.20;99.90;;;;;;4975799;28;20464;-72
2023/09/10 02:01:36;;;;;;;14.73;13.18;;;25.20;99.90;;;;;;4975794;28;20049;-73
2023/09/10 02:04:02;;;;;;;16.27;12.40;;;25.20;99.90;;;;;;4990766;28;20018;-73
2023/09/10 02:06:28;;;;;;;15.55;13.57;;;25.20;99.90;;;;;;4990109;28;20455;-73
2023/09/10 02:08:54;;;;;;;16.98;13.77;;;25.20;99.90;;;;;;4975350;28;20473;-73
2023/09/10 02:11:19;;;;;;;15.48;13.25;;;25.10;99.90;;;;;;4975287;28;20035;-71
2023/09/10 02:13:45;;;;;;;15.13;13.57;;;25.10;99.90;;;;;;4975649;28;20050;-71
2023/09/10 02:16:11;;;;;;;17.65;13.40;;;25.10;99.90;;;;;;4975671;28;20469;-73
2023/09/10 02:18:37;;;;;;;14.07;12.60;;;25.10;99.90;;;;;;4975566;28;20023;-73
2023/09/10 02:21:12;;;;;;;13.50;11.98;;;25.10;99.90;;;;;;4975331;28;20082;-72
2023/09/10 02:23:39;;;;;;;14.60;13.10;;;25.10;99.90;;;;;;4975473;28;20377;-71
2023/09/10 02:26:04;;;;;;;14.75;12.80;;;25.10;99.90;;;;;;4990254;28;20023;-73
2023/09/10 02:28:30;;;;;;;15.30;13.80;;;25.10;99.90;;;;;;4975221;28;20027;-72
2023/09/10 02:30:56;;;;;;;14.75;13.20;;;25.10;99.90;;;;;;4975332;28;20544;-71
2023/09/10 02:33:21;;;;;;;17.67;14.55;;;25.00;99.90;;;;;;4975234;28;20023;-72
2023/09/10 02:35:47;;;;;;;15.82;14.30;;;25.00;99.90;;;;;;4974850;28;20094;-73
2023/09/10 02:38:12;;;;;;;15.52;13.90;;;25.00;99.90;;;;;;4975166;28;20022;-71
2023/09/10 02:40:38;;;;;;;16.58;14.75;;;25.00;99.90;;;;;;4975031;28;20084;-73
2023/09/10 02:43:04;;;;;;;17.95;14.98;;;25.00;99.90;;;;;;4975060;28;20034;-71
2023/09/10 02:45:29;;;;;;;17.73;14.70;;;25.00;99.90;;;;;;4975088;28;20019;-72
2023/09/10 02:47:55;;;;;;;15.40;13.45;;;25.00;99.90;;;;;;4974795;28;20478;-71
2023/09/10 02:50:20;;;;;;;17.13;13.95;;;25.00;99.90;;;;;;4974611;28;20035;-73
2023/09/10 02:52:46;;;;;;;16.42;13.80;;;24.90;99.90;;;;;;4974799;28;20077;-71
2023/09/10 02:55:11;;;;;;;16.23;14.63;;;24.90;99.90;;;;;;4974925;28;20360;-72
2023/09/10 02:57:37;;;;;;;18.27;14.00;;;24.90;99.90;;;;;;4974624;28;20023;-71
2023/09/10 03:00:05;;;;;;;20.77;14.15;;;24.90;99.90;;;;;;4975042;28;20077;-71
2023/09/10 03:02:31;;;;;;;15.85;14.02;;;24.90;99.90;;;;;;4974683;28;20122;-71
2023/09/10 03:04:56;;;;;;;16.10;13.68;;;24.90;99.90;;;;;;4974545;28;20054;-74
2023/09/10 03:07:22;;;;;;;16.45;14.13;;;24.80;99.90;;;;;;4974694;28;20038;-73
2023/09/10 03:09:50;;;;;;;15.30;13.68;;;24.90;99.90;;;;;;4974602;28;20059;-72
2023/09/10 03:12:27;;;;;;;15.77;14.20;;;24.80;99.90;;;;;;4974603;28;20030;-71
2023/09/10 03:14:53;;;;;;;15.38;13.75;;;24.80;99.90;;;;;;4974681;28;20436;-73
2023/09/10 03:17:19;;;;;;;15.60;13.95;;;24.80;99.90;;;;;;4974107;28;20049;-72
2023/09/10 03:19:45;;;;;;;16.05;14.48;;;24.80;99.90;;;;;;4988690;28;20492;-71
2023/09/10 03:22:11;;;;;;;19.02;13.52;;;24.80;99.90;;;;;;4974424;28;20049;-73
2023/09/10 03:24:37;;;;;;;15.68;14.07;;;24.80;99.90;;;;;;4974380;28;20085;-71
2023/09/10 03:27:03;;;;;;;16.10;14.57;;;24.70;99.90;;;;;;4974358;28;20030;-72
2023/09/10 03:29:30;;;;;;;15.32;13.70;;;24.70;99.90;;;;;;4974592;28;20098;-71
2023/09/10 03:31:56;;;;;;;14.52;13.05;;;24.70;99.90;;;;;;4974257;28;20023;-73
2023/09/10 03:34:22;;;;;;;15.48;13.82;;;24.70;99.90;;;;;;4974309;28;20487;-71
2023/09/10 03:36:47;;;;;;;15.00;13.43;;;24.70;99.90;;;;;;4974091;28;20031;-72
2023/09/10 03:39:13;;;;;;;15.35;13.95;;;24.70;99.90;;;;;;4989301;28;20035;-73
2023/09/10 03:41:38;;;;;;;15.68;14.18;;;24.70;99.90;;;;;;4974352;28;20470;-73
2023/09/10 03:44:04;;;;;;;15.13;13.43;;;24.70;99.90;;;;;;4974241;28;20026;-71
2023/09/10 03:46:30;;;;;;;16.88;13.57;;;24.70;99.90;;;;;;4974285;28;20109;-71
2023/09/10 03:48:55;;;;;;;15.48;13.45;;;24.60;99.90;;;;;;4973839;28;20060;-71
2023/09/10 03:51:21;;;;;;;13.43;12.02;;;24.60;99.90;;;;;;4974184;28;20091;-73
2023/09/10 03:53:46;;;;;;;17.08;13.70;;;24.60;99.90;;;;;;4974034;28;20469;-73
2023/09/10 03:56:12;;;;;;;14.43;12.90;;;24.60;99.90;;;;;;4974338;28;20034;-73
2023/09/10 03:58:37;;;;;;;17.90;14.23;;;24.60;99.90;;;;;;4974072;28;20026;-73
2023/09/10 04:01:03;;;;;;;21.17;12.77;;;24.60;99.90;;;;;;4989035;28;20117;-73
2023/09/10 04:03:29;;;;;;;14.82;13.20;;;24.60;99.90;;;;;;4988709;28;20034;-73
2023/09/10 04:05:54;;;;;;;14.00;12.70;;;24.60;99.90;;;;;;4974064;28;20027;-72
2023/09/10 04:08:20;;;;;;;13.70;12.00;;;24.60;99.90;;;;;;4973976;28;20491;-74
2023/09/10 04:10:46;;;;;;;12.70;11.38;;;24.50;99.90;;;;;;4974000;28;20085;-73
2023/09/10 04:13:11;;;;;;;16.35;12.02;;;24.50;99.90;;;;;;4973994;28;20031;-71
2023/09/10 04:15:37;;;;;;;13.57;11.77;;;24.50;99.90;;;;;;4974061;28;20083;-71
2023/09/10 04:18:06;;;;;;;13.15;11.95;;;24.50;99.90;;;;;;4973669;28;20491;-71
2023/09/10 04:20:32;;;;;;;13.90;11.52;;;24.50;99.90;;;;;;4973721;28;20027;-73
2023/09/10 04:22:58;;;;;;;14.93;11.15;;;24.50;99.90;;;;;;4973819;28;20838;-71
2023/09/10 04:25:24;;;;;;;16.17;11.75;;;24.50;99.90;;;;;;4974109;28;20077;-72
2023/09/10 04:27:49;;;;;;;13.63;12.20;;;24.50;99.90;;;;;;4973835;28;20047;-71
2023/09/10 04:30:15;;;;;;;15.95;11.95;;;24.50;99.90;;;;;;4976369;28;20094;-71
2023/09/10 04:32:40;;;;;;;15.73;12.27;;;24.40;99.90;;;;;;4977263;28;20158;-73
2023/09/10 04:35:07;;;;;;;15.38;12.60;;;24.40;99.90;;;;;;4977365;28;20145;-71
2023/09/10 04:37:34;;;;;;;13.20;11.68;;;24.40;99.90;;;;;;4977523;28;20050;-71
2023/09/10 04:40:07;;;;;;;12.90;11.48;;;24.40;99.90;;;;;;4977256;28;20023;-72
2023/09/10 04:42:36;;;;;;;12.52;11.27;;;24.40;99.90;;;;;;4977295;28;20114;-73
2023/09/10 04:45:03;;;;;;;15.18;11.38;;;24.40;99.90;;;;;;4977191;28;20472;-71
2023/09/10 04:47:29;;;;;;;14.35;11.15;;;24.40;99.90;;;;;;4976910;28;20070;-73
2023/09/10 04:49:54;;;;;;;13.70;10.45;;;24.30;99.90;;;;;;4977016;28;20027;-72
2023/09/10 04:52:20;;;;;;;14.13;11.88;;;24.40;99.90;;;;;;4977286;28;20073;-72
2023/09/10 04:54:46;;;;;;;22.15;15.05;;;24.30;99.90;;;;;;4976982;28;20056;-71
2023/09/10 04:57:11;;;;;;;19.77;16.65;;;24.30;99.90;;;;;;4977034;28;20063;-71
2023/09/10 04:59:37;;;;;;;21.02;17.48;;;24.30;99.90;;;;;;4976891;28;20437;-73
2023/09/10 05:02:04;;;;;;;21.60;16.13;;;24.30;99.90;;;;;;4989955;28;20042;-74
2023/09/10 05:04:30;;;;;;;17.75;15.55;;;24.30;99.90;;;;;;4995954;28;20030;-73
2023/09/10 05:06:56;;;;;;;19.25;14.50;;;24.30;99.90;;;;;;4995648;28;20030;-72
2023/09/10 05:09:22;;;;;;;18.50;14.10;;;24.30;99.90;;;;;;4996212;28;20072;-71
2023/09/10 05:11:48;;;;;;;16.02;12.98;;;24.30;99.90;;;;;;4996185;28;20486;-73
2023/09/10 05:14:13;;;;;;;16.17;12.68;;;24.30;99.90;;;;;;4996170;28;20053;-72
2023/09/10 05:16:39;;;;;;;14.35;12.82;;;24.30;99.90;;;;;;4995908;28;20032;-71
2023/09/10 05:19:05;;;;;;;14.63;13.02;;;24.20;99.90;;;;;;4995903;28;20029;-73
2023/09/10 05:21:31;;;;;;;16.70;13.27;;;24.20;99.90;;;;;;4995762;28;20387;-73
2023/09/10 05:23:57;;;;;;;16.02;12.82;;;24.20;99.90;;;;;;4995913;28;20023;-73
2023/09/10 05:26:22;;;;;;;14.68;12.43;;;24.20;99.90;;;;;;4994601;28;20027;-72
2023/09/10 05:28:48;;;;;;;16.05;13.32;;;24.20;99.90;;;;;;4995873;28;20422;-72
2023/09/10 05:31:14;;;;;;;16.50;13.15;;;24.20;99.90;;;;;;4995617;28;20411;-73
2023/09/10 05:33:39;;;;;;;17.95;13.27;;;24.20;99.90;;;;;;4995904;28;20056;-73
2023/09/10 05:36:05;;;;;;;18.00;13.13;;;24.20;99.90;;;;;;4995680;28;20486;-73
2023/09/10 05:38:31;;;;;;;14.82;12.90;;;24.20;99.90;;;;;;4995614;28;20497;-72
2023/09/10 05:41:01;;;;;;;20.98;13.15;;;24.20;99.90;;;;;;4993577;28;20117;-73
2023/09/10 05:43:29;;;;;;;18.75;13.93;;;24.20;99.90;;;;;;4995796;28;20060;-73
2023/09/10 05:45:56;;;;;;;20.70;13.88;;;24.20;99.90;;;;;;4995165;28;20448;-71
2023/09/10 05:48:22;;;;;;;15.48;13.18;;;24.10;99.90;;;;;;4994196;28;20381;-73
2023/09/10 05:50:47;;;;;;;19.38;13.52;;;24.20;99.90;;;;;;4995503;28;20029;-71
2023/09/10 05:53:13;;;;;;;14.57;13.15;;;24.20;99.90;;;;;;4995602;28;20114;-72
2023/09/10 05:55:40;;;;;;;14.05;12.70;;;24.10;99.90;;;;;;4995364;28;20464;-71
2023/09/10 05:58:07;;;;;;;14.75;12.30;;;24.10;99.90;;;;;;4993900;28;20384;-73
2023/09/10 06:00:33;;;;;;;16.25;13.18;;;24.20;99.90;;;;;;4994885;28;20030;-73
2023/09/10 06:02:59;;;;;;;15.27;13.55;;;24.10;99.90;;;;;;5010312;28;20034;-73
2023/09/10 06:05:24;;;;;;;14.90;12.93;;;24.20;99.90;;;;;;4995227;28;20122;-71
2023/09/10 06:07:50;;;;;;;17.15;12.25;;;24.20;99.90;;;;;;4995228;28;20035;-72
2023/09/10 06:10:16;;;;;;;13.48;11.77;;;24.20;99.90;;;;;;4995012;28;20379;-73
2023/09/10 06:12:43;;;;;;;16.98;11.98;;;24.20;99.90;;;;;;4993879;28;20128;-73
2023/09/10 06:15:08;;;;;;;15.23;11.52;;;24.20;99.90;;;;;;4994716;28;20435;-73
2023/09/10 06:17:35;;;;;;;15.43;11.30;;;24.30;99.90;;;;;;4994843;28;20018;-71
2023/09/10 06:20:02;;;;;;;12.80;10.43;;;24.30;99.90;;;;;;4993388;28;20038;-72
2023/09/10 06:22:28;;;;;;;14.13;10.40;;;24.30;99.90;;;;;;4994750;28;20045;-72
2023/09/10 06:24:54;;;;;;;12.93;10.85;;;24.30;99.90;;;;;;4994425;28;20026;-72
2023/09/10 06:27:19;;;;;;;14.52;10.68;;;24.30;99.90;;;;;;4994635;28;20030;-74
2023/09/10 06:29:45;;;;;;;11.07;9.63;;;24.30;99.90;;;;;;4993139;28;20021;-72
2023/09/10 06:32:11;;;;;;;13.13;9.63;;;24.40;99.90;;;;;;4995613;28;20502;-71
2023/09/10 06:34:37;;;;;;;12.13;9.15;;;24.30;99.90;;;;;;4993649;28;20380;-71
2023/09/10 06:37:03;;;;;;;13.10;10.25;;;24.40;99.90;;;;;;5011292;28;20053;-72
2023/09/10 06:39:29;;;;;;;15.60;10.35;;;24.40;99.90;;;;;;5012420;28;20090;-71
2023/09/10 06:41:55;;;;;;;14.23;9.60;;;24.40;99.90;;;;;;4989288;28;20411;-71
2023/09/10 06:44:20;;;;;;;13.15;10.07;;;24.40;99.90;;;;;;4993420;28;20023;-73
2023/09/10 06:46:46;;;;;;;14.30;9.82;;;24.40;99.90;;;;;;4993251;28;20160;-73
2023/09/10 06:49:12;;;;;;;13.73;9.70;;;24.40;99.90;;;;;;4994309;28;20471;-72
2023/09/10 06:51:37;;;;;;;10.40;9.15;;;24.50;99.90;;;;;;4994420;28;20034;-72
2023/09/10 06:54:04;;;;;;;12.10;8.68;;;24.50;99.90;;;;;;4993272;28;20113;-71
2023/09/10 06:56:30;;;;;;;11.70;8.52;;;24.50;99.90;;;;;;4991207;28;20476;-72
2023/09/10 06:58:55;;;;;;;17.38;9.27;;;24.50;99.90;;;;;;4992576;28;20034;-71
2023/09/10 07:01:21;;;;;;;10.05;8.35;;;24.50;99.90;;;;;;5013620;28;20042;-71
2023/09/10 07:03:52;;;;;;;12.20;8.30;;;24.60;99.90;;;;;;4993526;28;20476;-71
2023/09/10 07:06:17;;;;;;;11.00;8.45;;;24.60;99.90;;;;;;4984673;28;20023;-74
2023/09/10 07:08:43;;;;;;;8.88;7.47;;;24.60;99.90;;;;;;4980261;28;20531;-73
2023/09/10 07:11:08;;;;;;;13.98;8.35;;;24.60;99.90;;;;;;4988167;28;20038;-70
2023/09/10 07:13:36;;;;;;;9.10;7.25;;;24.60;99.90;;;;;;4990081;28;20107;-74
2023/09/10 07:16:02;;;;;;;12.57;7.13;;;24.70;99.90;;;;;;4986063;28;20018;-71
2023/09/10 07:18:32;;;;;;;9.50;7.28;;;24.70;99.90;;;;;;4989022;28;20111;-70
2023/09/10 07:21:02;;;;;;;7.95;7.18;;;24.70;99.90;;;;;;4986307;28;20033;-71
2023/09/10 07:23:28;;;;;;;13.25;7.45;;;24.70;99.90;;;;;;5005115;28;20030;-73
2023/09/10 07:25:55;;;;;;;8.75;7.05;;;24.70;99.90;;;;;;4999478;28;20026;-73
2023/09/10 07:28:21;;;;;;;8.90;7.68;;;24.70;99.90;;;;;;4994421;28;20030;-71
2023/09/10 07:30:47;;;;;;;11.75;7.53;;;24.70;99.90;;;;;;5000262;28;20038;-71
2023/09/10 07:33:12;;;;;;;8.70;7.25;;;24.70;99.90;;;;;;4999424;28;20034;-73
2023/09/10 07:35:38;;;;;;;7.45;6.28;;;24.80;99.90;;;;;;4996218;28;20065;-71
2023/09/10 07:38:04;;;;;;;7.78;6.97;;;24.80;99.90;;;;;;4995958;28;20018;-73
2023/09/10 07:40:29;;;;;;;7.90;7.18;;;24.80;99.90;;;;;;4995923;28;20056;-73
2023/09/10 07:42:58;;;;;;;7.68;6.45;;;24.80;99.90;;;;;;4989746;28;20086;-71
2023/09/10 07:45:25;;;;;;;9.27;6.38;;;24.90;99.90;;;;;;4989343;28;20029;-74
2023/09/10 07:47:51;;;;;;;13.02;7.28;;;24.90;99.90;;;;;;4992256;28;20495;-74
2023/09/10 07:50:16;;;;;;;14.68;6.70;;;25.00;99.90;;;;;;5000674;28;20109;-73
2023/09/10 07:52:42;;;;;;;7.78;6.32;;;25.00;99.90;;;;;;5013163;28;20026;-71
2023/09/10 07:55:08;;;;;;;8.75;6.45;;;25.10;99.90;;;;;;5012887;28;20034;-73
2023/09/10 07:57:33;;;;;;;9.13;6.65;;;25.10;99.90;;;;;;5012995;28;20025;-74
2023/09/10 07:59:59;;;;;;;8.32;6.45;;;25.10;99.90;;;;;;5011872;28;20034;-74
2023/09/10 08:02:26;;;;;;;10.88;7.07;;;25.20;99.90;;;;;;5012864;28;20078;-73
2023/09/10 08:04:52;;;;;;;6.72;6.07;;;25.20;99.90;;;;;;5014860;28;20022;-72
2023/09/10 08:07:18;;;;;;;10.07;6.35;;;25.20;99.90;;;;;;5016326;28;20028;-73
2023/09/10 08:09:43;;;;;;;9.00;6.35;;;25.30;99.90;;;;;;5016346;28;20461;-73
2023/09/10 08:12:09;;;;;;;8.98;6.60;;;25.30;99.90;;;;;;5014537;28;20030;-72
2023/09/10 08:14:37;;;;;;;8.73;5.95;;;25.30;99.90;;;;;;4997978;28;20404;-74
2023/09/10 08:17:03;;;;;;;8.05;6.18;;;25.40;99.90;;;;;;5011007;28;20037;-71
2023/09/10 08:19:29;;;;;;;7.47;6.18;;;25.30;99.90;;;;;;4994266;28;20027;-72
2023/09/10 08:21:54;;;;;;;8.80;6.40;;;25.40;99.90;;;;;;4981908;28;20415;-71
2023/09/10 08:24:21;;;;;;;9.90;6.10;;;25.40;99.90;;;;;;4987986;28;20035;-74
2023/09/10 08:26:47;;;;;;;9.60;6.32;;;25.50;99.90;;;;;;4985700;28;20031;-72
2023/09/10 08:29:12;;;;;;;8.40;6.00;;;25.50;99.90;;;;;;4996713;28;20029;-73
2023/09/10 08:31:38;;;;;;;9.98;6.47;;;25.50;99.90;;;;;;5000144;28;20148;-73
2023/09/10 08:34:03;;;;;;;8.48;6.20;;;25.50;99.90;;;;;;4992274;28;20410;-71
2023/09/10 08:36:29;;;;;;;11.63;6.18;;;25.50;99.90;;;;;;4981115;28;20023;-71
2023/09/10 08:38:55;;;;;;;11.35;6.32;;;25.50;99.90;;;;;;4978358;28;20388;-74
2023/09/10 08:41:44;;;;;;;13.98;6.32;;;25.50;99.90;;;;;;4996682;28;20389;-74
2023/09/10 08:44:13;;;;;;;9.40;5.88;;;25.60;99.90;;;;;;4999006;28;20480;-73
2023/09/10 08:46:40;;;;;;;10.35;6.57;;;25.60;99.90;;;;;;4976505;28;20420;-73
2023/09/10 08:49:07;;;;;;;12.80;6.47;;;25.60;99.90;;;;;;4990661;28;20041;-71
2023/09/10 08:51:34;;;;;;;8.80;6.00;;;25.70;99.90;;;;;;4986777;28;20049;-70
2023/09/10 08:54:01;;;;;;;8.93;5.97;;;25.70;99.90;;;;;;4995519;28;20058;-73
2023/09/10 08:56:27;;;;;;;10.00;7.05;;;25.70;99.90;;;;;;4983727;28;20033;-74
2023/09/10 08:58:54;;;;;;;9.63;5.95;;;25.70;99.90;;;;;;4999199;28;20384;-76
2023/09/10 09:01:23;;;;;;;8.82;5.93;;;25.70;99.90;;;;;;4993486;28;20126;-76
2023/09/10 09:03:49;;;;;;;7.70;5.95;;;25.80;99.90;;;;;;4983473;28;20033;-76
2023/09/10 09:06:15;;;;;;;10.00;6.20;;;25.80;99.90;;;;;;4976347;28;20532;-76
2023/09/10 09:08:47;;;;;;;9.85;5.95;;;25.80;99.90;;;;;;4987573;28;20027;-73
2023/09/10 09:11:14;;;;;;;;;;;25.80;99.90;;;;;;4987245;28;20027;-74
2023/09/10 09:13:45;;;;;;;7.88;6.05;;;25.80;99.90;;;;;;4985804;28;20008;-75
2023/09/10 09:16:11;;;;;;;12.13;6.95;;;25.80;99.90;;;;;;4990717;28;20037;-73
2023/09/10 09:18:39;;;;;;;8.05;6.10;;;25.80;99.90;;;;;;4983493;28;20027;-74
2023/09/10 09:21:19;;;;;;;8.00;5.80;;;25.80;99.90;;;;;;4972132;28;20125;-72
2023/09/10 09:24:01;;;;;;;9.02;6.28;;;25.90;99.90;;;;;;4974352;28;20086;-74
2023/09/10 09:26:28;;;;;;;;;;;25.90;99.90;;;;;;4972394;28;20027;-76
2023/09/10 09:28:57;;;;;;;8.30;6.03;;;25.90;99.90;;;;;;4965054;28;19970;-76
2023/09/10 09:31:24;;;;;;;7.55;5.85;;;25.90;99.90;;;;;;4967914;28;20080;-73
2023/09/10 09:33:50;;;;;;;10.20;5.97;;;25.90;99.90;;;;;;4967365;28;20110;-73
2023/09/10 09:36:16;;;;;;;9.45;6.18;;;26.00;99.90;;;;;;4980582;28;20031;-73
2023/09/10 09:38:47;;;;;;;8.15;5.93;;;26.00;99.90;;;;;;4973188;28;20027;-75
2023/09/10 09:41:17;;;;;;;12.32;6.10;;;26.00;99.90;;;;;;4968113;28;20031;-74
2023/09/10 09:43:43;;;;;;;9.00;7.07;;;26.00;99.90;;;;;;4969173;28;20439;-75
2023/09/10 09:46:09;;;;;;;8.50;6.88;;;26.00;99.90;;;;;;4967414;28;20022;-73
2023/09/10 09:48:36;;;;;;;10.82;7.18;;;26.10;99.90;;;;;;4974352;28;20085;-73
2023/09/10 09:51:03;;;;;;;11.43;6.55;;;26.10;99.90;;;;;;4975379;28;20023;-73
2023/09/10 09:53:31;;;;;;;8.68;6.32;;;26.10;99.90;;;;;;4975867;28;20027;-73
2023/09/10 09:56:01;;;;;;;9.88;6.38;;;26.10;99.90;;;;;;4975340;28;20066;-73
2023/09/10 09:58:30;;;;;;;9.00;5.75;;;26.10;99.90;;;;;;4975478;28;20110;-75
2023/09/10 10:00:59;;;;;;;8.00;6.00;;;26.10;99.90;;;;;;4975227;28;20027;-74
2023/09/10 10:03:25;;;;;;;10.68;5.72;;;26.20;99.90;;;;;;4974994;28;20030;-74
2023/09/10 10:05:52;;;;;;;7.75;5.68;;;26.10;99.90;;;;;;4975052;28;20468;-74
2023/09/10 10:08:23;;;;;;;8.90;5.65;;;26.20;99.90;;;;;;4972879;28;20504;-74
2023/09/10 10:10:49;;;;;;;9.00;5.88;;;26.20;99.90;;;;;;4969956;28;20093;-74
2023/09/10 10:13:20;;;;;;;10.05;5.90;;;26.20;99.90;;;;;;4970866;28;20476;-73
2023/09/10 10:15:51;;;;;;;8.03;6.20;;;26.20;99.90;;;;;;4955698;28;20018;-74
2023/09/10 10:18:18;;;;;;;11.48;6.25;;;26.30;99.90;;;;;;4972749;28;20499;-73
2023/09/10 10:20:46;;;;;;;10.43;7.13;;;26.30;99.90;;;;;;4986991;28;20037;-74
2023/09/10 10:23:13;;;;;;;10.93;7.20;;;26.30;99.90;;;;;;5001901;28;20038;-72
2023/09/10 10:25:41;;;;;;;13.65;8.68;;;26.30;99.90;;;;;;4994314;28;20085;-74
2023/09/10 10:28:09;;;;;;;11.68;7.75;;;26.30;99.90;;;;;;4992596;28;20058;-72
2023/09/10 10:30:37;;;;;;;13.73;8.75;;;26.40;99.90;;;;;;4994306;28;20084;-73
2023/09/10 10:33:06;;;;;;;10.10;7.63;;;26.30;99.90;;;;;;4994113;28;20010;-73
2023/09/10 10:35:36;;;;;;;12.52;8.10;;;26.40;99.90;;;;;;4992454;28;20475;-74
2023/09/10 10:38:05;;;;;;;13.40;9.00;;;26.40;99.90;;;;;;4992807;28;20076;-72
2023/09/10 10:40:39;;;;;;;10.40;8.38;;;26.40;99.90;;;;;;4994402;28;20022;-74
2023/09/10 10:43:12;;;;;;;10.20;8.38;;;26.50;99.90;;;;;;4992709;28;20404;-74
2023/09/10 10:45:38;;;;;;;14.55;8.85;;;26.40;99.90;;;;;;4992452;28;20026;-73
2023/09/10 10:48:19;;;;;;;10.05;7.53;;;26.50;99.90;;;;;;4991732;28;20033;-73
2023/09/10 10:50:46;;;;;;;9.18;7.93;;;26.50;99.90;;;;;;4990809;28;20084;-72
2023/09/10 10:53:20;;;;;;;12.82;9.00;;;26.50;99.90;;;;;;4992416;28;20723;-72
2023/09/10 10:55:50;;;;;;;12.48;8.93;;;26.50;99.90;;;;;;4983257;28;20057;-73
2023/09/10 10:58:18;;;;;;;12.45;7.75;;;26.50;99.90;;;;;;4981117;28;20035;-73
2023/09/10 11:00:48;;;;;;;13.43;8.65;;;26.60;99.90;;;;;;4990349;28;20162;-75
2023/09/10 11:03:16;;;;;;;12.07;7.97;;;26.60;99.90;;;;;;4981337;28;20034;-75
2023/09/10 11:06:04;;;;;;;11.80;7.68;;;26.60;99.90;;;;;;4988435;28;20044;-74
2023/09/10 11:08:40;;;;;;;13.35;7.68;;;26.60;99.90;;;;;;4987699;28;20029;-75
2023/09/10 11:11:10;;;;;;;9.80;6.50;;;26.60;99.90;;;;;;4989617;28;20081;-74
2023/09/10 11:14:02;;;;;;;10.57;6.80;;;26.60;99.90;;;;;;4986690;28;20022;-74
2023/09/10 11:16:31;;;;;;;9.25;7.07;;;26.60;99.90;;;;;;4978775;28;20022;-74
2023/09/10 11:18:58;;;;;;;12.93;6.03;;;26.60;99.90;;;;;;4991109;28;20023;-74
2023/09/10 11:21:55;;;;;;;9.77;5.55;;;26.70;99.90;;;;;;5006866;28;20380;-72
2023/09/10 11:24:21;;;;;;;10.57;6.20;;;26.70;99.90;;;;;;4992058;28;20042;-73
2023/09/10 11:26:47;;;;;;;7.60;5.50;;;26.70;99.90;;;;;;4993794;28;20092;-73
2023/09/10 11:29:17;;;;;;;8.98;5.47;;;26.70;99.90;;;;;;4993829;28;20033;-74
2023/09/10 11:31:45;;;;;;;7.10;5.47;;;26.70;99.90;;;;;;4993490;28;20030;-74
2023/09/10 11:36:45;;;;;;;9.85;5.85;;;26.80;99.90;;;;;;4993464;28;20030;-72
2023/09/10 11:39:15;;;;;;;8.88;5.53;;;26.70;99.90;;;;;;4990528;28;20105;-74
2023/09/10 11:41:46;;;;;;;9.05;5.82;;;26.80;99.90;;;;;;4998398;28;20040;-75
2023/09/10 11:44:11;;;;;;;10.07;5.43;;;26.80;99.90;;;;;;4990393;28;20104;-75
2023/09/10 11:46:37;;;;;;;8.88;5.63;;;26.80;99.90;;;;;;4987629;28;20452;-74
2023/09/10 11:49:03;;;;;;;10.80;5.40;;;26.80;99.90;;;;;;5006008;28;20027;-75
2023/09/10 11:51:29;;;;;;;6.05;4.78;;;26.80;99.90;;;;;;4978213;28;20037;-72
2023/09/10 11:53:56;;;;;;;6.88;4.90;;;26.80;99.90;;;;;;4987022;28;20038;-73
2023/09/10 11:56:22;;;;;;;8.48;5.40;;;26.90;99.90;;;;;;4986703;28;20030;-72
2023/09/10 11:58:48;;;;;;;6.97;4.95;;;26.90;99.90;;;;;;4991053;28;20034;-74
2023/09/10 12:01:14;;;;;;;7.38;5.32;;;26.90;99.90;;;;;;4982419;28;20169;-74
2023/09/10 12:03:44;;;;;;;15.98;4.63;;;26.90;99.90;;;;;;4986248;28;20114;-75
2023/09/10 12:06:11;;;;;;;7.95;4.60;;;26.90;99.90;;;;;;4988393;28;20033;-75
2023/09/10 12:08:37;;;;;;;7.82;5.20;;;27.00;99.90;;;;;;4989820;28;20109;-73
2023/09/10 12:11:06;;;;;;;7.47;4.75;;;27.00;99.90;;;;;;4992102;28;20102;-72
2023/09/10 12:13:33;;;;;;;7.13;4.50;;;27.00;99.90;;;;;;4991841;28;20031;-74
2023/09/10 12:15:59;;;;;;;6.07;4.35;;;27.00;99.90;;;;;;4990676;28;20026;-73
2023/09/10 12:18:25;;;;;;;7.60;4.80;;;27.00;99.90;;;;;;4992490;28;20022;-73
2023/09/10 12:20:51;;;;;;;7.32;4.68;;;27.00;99.90;;;;;;4992740;28;20061;-75
2023/09/10 12:23:17;;;;;;;9.35;4.80;;;27.00;99.90;;;;;;4993109;28;20487;-75
2023/09/10 12:25:43;;;;;;;6.50;4.30;;;27.10;99.90;;;;;;4989265;28;20043;-74
2023/09/10 12:28:08;;;;;;;6.03;4.63;;;27.10;99.90;;;;;;4978536;28;20034;-75
2023/09/10 12:30:36;;;;;;;8.32;4.70;;;27.00;99.90;;;;;;4978186;28;20015;-75
2023/09/10 12:33:02;;;;;;;8.18;5.28;;;27.10;99.90;;;;;;4992266;28;20109;-75
2023/09/10 12:35:29;;;;;;;6.53;4.75;;;27.10;99.90;;;;;;4991951;28;20027;-73
2023/09/10 12:37:55;;;;;;;4.65;4.15;;;27.10;99.90;;;;;;4990401;28;20562;-72